sensor_id;sensor_type;location;lat;lon;timestamp;temperature;humidity
67529;DHT22;54366;51.980;5.856;2022-12-05T00:01:36;4.50;82.70
67529;DHT22;54366;51.980;5.856;2022-12-05T00:04:09;4.50;82.60
67529;DHT22;54366;51.980;5.856;2022-12-05T00:06:37;4.50;83.00
67529;DHT22;54366;51.980;5.856;2022-12-05T00:09:05;4.40;83.10
67529;DHT22;54366;51.980;5.856;2022-12-05T00:11:36;4.50;83.10
67529;DHT22;54366;51.980;5.856;2022-12-05T00:14:03;4.50;83.20
67529;DHT22;54366;51.980;5.856;2022-12-05T00:16:32;4.40;83.10
67529;DHT22;54366;51.980;5.856;2022-12-05T00:18:59;4.50;83.20
67529;DHT22;54366;51.980;5.856;2022-12-05T00:21:29;4.50;83.20
67529;DHT22;54366;51.980;5.856;2022-12-05T00:23:56;4.50;83.30
67529;DHT22;54366;51.980;5.856;2022-12-05T00:26:23;4.50;83.40
67529;DHT22;54366;51.980;5.856;2022-12-05T00:28:50;4.50;83.50
67529;DHT22;54366;51.980;5.856;2022-12-05T00:31:20;4.50;83.70
67529;DHT22;54366;51.980;5.856;2022-12-05T00:33:47;4.50;83.90
67529;DHT22;54366;51.980;5.856;2022-12-05T00:36:16;4.50;84.00
67529;DHT22;54366;51.980;5.856;2022-12-05T00:38:42;4.50;83.80
67529;DHT22;54366;51.980;5.856;2022-12-05T00:41:12;4.50;83.80
67529;DHT22;54366;51.980;5.856;2022-12-05T00:43:39;4.50;83.90
67529;DHT22;54366;51.980;5.856;2022-12-05T00:46:09;4.50;84.00
67529;DHT22;54366;51.980;5.856;2022-12-05T00:48:36;4.50;84.30
67529;DHT22;54366;51.980;5.856;2022-12-05T00:51:06;4.50;84.30
67529;DHT22;54366;51.980;5.856;2022-12-05T00:53:32;4.50;84.30
67529;DHT22;54366;51.980;5.856;2022-12-05T00:56:13;4.50;84.20
67529;DHT22;54366;51.980;5.856;2022-12-05T00:58:41;4.50;84.20
67529;DHT22;54366;51.980;5.856;2022-12-05T01:01:32;4.50;84.20
67529;DHT22;54366;51.980;5.856;2022-12-05T01:04:01;4.50;84.20
67529;DHT22;54366;51.980;5.856;2022-12-05T01:06:28;4.50;84.20
67529;DHT22;54366;51.980;5.856;2022-12-05T01:08:55;4.50;84.30
67529;DHT22;54366;51.980;5.856;2022-12-05T01:11:22;4.50;84.20
67529;DHT22;54366;51.980;5.856;2022-12-05T01:13:49;4.50;84.30
67529;DHT22;54366;51.980;5.856;2022-12-05T01:16:30;4.50;84.40
67529;DHT22;54366;51.980;5.856;2022-12-05T01:18:58;4.60;84.70
67529;DHT22;54366;51.980;5.856;2022-12-05T01:21:25;4.50;84.80
67529;DHT22;54366;51.980;5.856;2022-12-05T01:23:51;4.60;85.40
67529;DHT22;54366;51.980;5.856;2022-12-05T01:26:20;4.50;84.70
67529;DHT22;54366;51.980;5.856;2022-12-05T01:28:48;4.50;84.70
67529;DHT22;54366;51.980;5.856;2022-12-05T01:31:29;4.50;84.70
67529;DHT22;54366;51.980;5.856;2022-12-05T01:33:58;4.60;84.90
67529;DHT22;54366;51.980;5.856;2022-12-05T01:36:25;4.60;84.80
67529;DHT22;54366;51.980;5.856;2022-12-05T01:38:52;4.60;84.80
67529;DHT22;54366;51.980;5.856;2022-12-05T01:41:22;4.60;84.90
67529;DHT22;54366;51.980;5.856;2022-12-05T01:43:57;4.60;85.00
67529;DHT22;54366;51.980;5.856;2022-12-05T01:46:25;4.60;85.10
67529;DHT22;54366;51.980;5.856;2022-12-05T01:49:06;4.60;85.20
67529;DHT22;54366;51.980;5.856;2022-12-05T01:51:35;4.60;85.10
67529;DHT22;54366;51.980;5.856;2022-12-05T01:54:04;4.60;85.20
67529;DHT22;54366;51.980;5.856;2022-12-05T01:56:32;4.60;85.10
67529;DHT22;54366;51.980;5.856;2022-12-05T01:59:01;4.60;85.10
67529;DHT22;54366;51.980;5.856;2022-12-05T02:01:27;4.60;85.00
67529;DHT22;54366;51.980;5.856;2022-12-05T02:03:56;4.60;85.10
67529;DHT22;54366;51.980;5.856;2022-12-05T02:06:24;4.70;85.20
67529;DHT22;54366;51.980;5.856;2022-12-05T02:08:52;4.70;85.50
67529;DHT22;54366;51.980;5.856;2022-12-05T02:11:19;4.70;85.30
67529;DHT22;54366;51.980;5.856;2022-12-05T02:16:57;4.70;85.30
67529;DHT22;54366;51.980;5.856;2022-12-05T02:20:03;4.70;85.10
67529;DHT22;54366;51.980;5.856;2022-12-05T02:24:21;4.80;85.20
67529;DHT22;54366;51.980;5.856;2022-12-05T02:32:37;4.80;85.30
67529;DHT22;54366;51.980;5.856;2022-12-05T02:37:22;4.80;85.30
67529;DHT22;54366;51.980;5.856;2022-12-05T02:38:49;4.80;85.40
67529;DHT22;54366;51.980;5.856;2022-12-05T02:41:36;4.80;85.50
67529;DHT22;54366;51.980;5.856;2022-12-05T02:44:37;4.70;85.30
67529;DHT22;54366;51.980;5.856;2022-12-05T02:47:07;4.80;85.70
67529;DHT22;54366;51.980;5.856;2022-12-05T02:49:36;4.80;85.80
67529;DHT22;54366;51.980;5.856;2022-12-05T02:52:07;4.80;85.90
67529;DHT22;54366;51.980;5.856;2022-12-05T02:54:36;4.80;85.90
67529;DHT22;54366;51.980;5.856;2022-12-05T02:57:03;4.90;86.10
67529;DHT22;54366;51.980;5.856;2022-12-05T02:59:30;4.80;86.10
67529;DHT22;54366;51.980;5.856;2022-12-05T03:01:57;4.80;86.00
67529;DHT22;54366;51.980;5.856;2022-12-05T03:04:25;4.90;85.90
67529;DHT22;54366;51.980;5.856;2022-12-05T03:06:53;4.90;85.90
67529;DHT22;54366;51.980;5.856;2022-12-05T03:09:49;4.90;85.80
67529;DHT22;54366;51.980;5.856;2022-12-05T03:12:25;5.00;85.70
67529;DHT22;54366;51.980;5.856;2022-12-05T03:15:22;4.90;85.60
67529;DHT22;54366;51.980;5.856;2022-12-05T03:21:02;4.90;85.60
67529;DHT22;54366;51.980;5.856;2022-12-05T03:23:32;5.00;86.00
67529;DHT22;54366;51.980;5.856;2022-12-05T03:32:21;5.00;86.00
67529;DHT22;54366;51.980;5.856;2022-12-05T03:35:14;5.00;85.90
67529;DHT22;54366;51.980;5.856;2022-12-05T03:37:53;5.00;86.00
67529;DHT22;54366;51.980;5.856;2022-12-05T03:40:34;4.90;86.00
67529;DHT22;54366;51.980;5.856;2022-12-05T03:43:32;4.90;86.00
67529;DHT22;54366;51.980;5.856;2022-12-05T03:46:02;4.90;86.00
67529;DHT22;54366;51.980;5.856;2022-12-05T03:48:31;5.00;86.10
67529;DHT22;54366;51.980;5.856;2022-12-05T03:51:01;5.00;86.10
67529;DHT22;54366;51.980;5.856;2022-12-05T03:53:32;5.00;86.20
67529;DHT22;54366;51.980;5.856;2022-12-05T03:56:05;5.00;86.20
67529;DHT22;54366;51.980;5.856;2022-12-05T03:58:43;5.00;86.30
67529;DHT22;54366;51.980;5.856;2022-12-05T04:01:13;5.00;86.20
67529;DHT22;54366;51.980;5.856;2022-12-05T04:03:48;5.00;86.30
67529;DHT22;54366;51.980;5.856;2022-12-05T04:06:21;4.90;86.20
67529;DHT22;54366;51.980;5.856;2022-12-05T04:08:55;5.00;86.30
67529;DHT22;54366;51.980;5.856;2022-12-05T04:11:24;5.00;86.00
67529;DHT22;54366;51.980;5.856;2022-12-05T04:13:54;5.00;86.00
67529;DHT22;54366;51.980;5.856;2022-12-05T04:16:40;5.10;86.20
67529;DHT22;54366;51.980;5.856;2022-12-05T04:19:50;5.00;86.00
67529;DHT22;54366;51.980;5.856;2022-12-05T04:22:37;5.10;86.20
67529;DHT22;54366;51.980;5.856;2022-12-05T04:25:07;5.10;86.20
67529;DHT22;54366;51.980;5.856;2022-12-05T04:28:04;5.10;86.40
67529;DHT22;54366;51.980;5.856;2022-12-05T04:30:49;5.10;86.30
67529;DHT22;54366;51.980;5.856;2022-12-05T04:33:56;5.10;86.50
67529;DHT22;54366;51.980;5.856;2022-12-05T04:36:43;5.10;86.40
67529;DHT22;54366;51.980;5.856;2022-12-05T04:39:15;5.10;86.30
67529;DHT22;54366;51.980;5.856;2022-12-05T04:42:21;5.10;86.20
67529;DHT22;54366;51.980;5.856;2022-12-05T04:44:52;5.10;86.30
67529;DHT22;54366;51.980;5.856;2022-12-05T04:47:22;5.10;86.30
67529;DHT22;54366;51.980;5.856;2022-12-05T04:49:51;5.10;86.40
67529;DHT22;54366;51.980;5.856;2022-12-05T04:52:18;5.10;86.40
67529;DHT22;54366;51.980;5.856;2022-12-05T04:55:06;5.10;86.50
67529;DHT22;54366;51.980;5.856;2022-12-05T04:57:44;5.10;86.40
67529;DHT22;54366;51.980;5.856;2022-12-05T05:00:15;5.20;87.00
67529;DHT22;54366;51.980;5.856;2022-12-05T05:02:45;5.10;86.30
67529;DHT22;54366;51.980;5.856;2022-12-05T05:05:15;5.20;86.30
67529;DHT22;54366;51.980;5.856;2022-12-05T05:07:47;5.20;86.30
67529;DHT22;54366;51.980;5.856;2022-12-05T05:10:16;5.20;86.20
67529;DHT22;54366;51.980;5.856;2022-12-05T05:12:45;5.20;86.20
67529;DHT22;54366;51.980;5.856;2022-12-05T05:15:11;5.30;86.20
67529;DHT22;54366;51.980;5.856;2022-12-05T05:17:37;5.20;86.20
67529;DHT22;54366;51.980;5.856;2022-12-05T05:20:04;5.20;86.20
67529;DHT22;54366;51.980;5.856;2022-12-05T05:22:50;5.20;86.30
67529;DHT22;54366;51.980;5.856;2022-12-05T05:25:17;5.20;86.20
67529;DHT22;54366;51.980;5.856;2022-12-05T05:27:50;5.30;86.40
67529;DHT22;54366;51.980;5.856;2022-12-05T05:30:18;5.30;86.40
67529;DHT22;54366;51.980;5.856;2022-12-05T05:32:44;5.30;86.30
67529;DHT22;54366;51.980;5.856;2022-12-05T05:35:12;5.30;86.20
67529;DHT22;54366;51.980;5.856;2022-12-05T05:37:38;5.30;86.20
67529;DHT22;54366;51.980;5.856;2022-12-05T05:40:07;5.30;86.20
67529;DHT22;54366;51.980;5.856;2022-12-05T05:42:34;5.30;86.20
67529;DHT22;54366;51.980;5.856;2022-12-05T05:45:01;5.30;86.20
67529;DHT22;54366;51.980;5.856;2022-12-05T05:47:27;5.30;86.10
67529;DHT22;54366;51.980;5.856;2022-12-05T05:49:53;5.30;86.30
67529;DHT22;54366;51.980;5.856;2022-12-05T05:52:20;5.30;86.20
67529;DHT22;54366;51.980;5.856;2022-12-05T05:54:46;5.30;86.20
67529;DHT22;54366;51.980;5.856;2022-12-05T05:57:12;5.30;86.10
67529;DHT22;54366;51.980;5.856;2022-12-05T05:59:39;5.40;86.40
67529;DHT22;54366;51.980;5.856;2022-12-05T06:02:05;5.40;86.20
67529;DHT22;54366;51.980;5.856;2022-12-05T06:04:33;5.40;86.30
67529;DHT22;54366;51.980;5.856;2022-12-05T06:07:00;5.50;86.40
67529;DHT22;54366;51.980;5.856;2022-12-05T06:09:26;5.40;86.40
67529;DHT22;54366;51.980;5.856;2022-12-05T06:11:53;5.40;86.50
67529;DHT22;54366;51.980;5.856;2022-12-05T06:14:19;5.40;86.40
67529;DHT22;54366;51.980;5.856;2022-12-05T06:16:45;5.40;86.40
67529;DHT22;54366;51.980;5.856;2022-12-05T06:19:11;5.40;86.50
67529;DHT22;54366;51.980;5.856;2022-12-05T06:21:38;5.40;86.50
67529;DHT22;54366;51.980;5.856;2022-12-05T06:24:04;5.40;86.40
67529;DHT22;54366;51.980;5.856;2022-12-05T06:26:31;5.40;86.50
67529;DHT22;54366;51.980;5.856;2022-12-05T06:28:57;5.50;86.60
67529;DHT22;54366;51.980;5.856;2022-12-05T06:31:24;5.40;86.60
67529;DHT22;54366;51.980;5.856;2022-12-05T06:33:53;5.40;87.20
67529;DHT22;54366;51.980;5.856;2022-12-05T06:36:20;5.40;86.50
67529;DHT22;54366;51.980;5.856;2022-12-05T06:38:47;5.40;86.60
67529;DHT22;54366;51.980;5.856;2022-12-05T06:41:16;5.40;86.50
67529;DHT22;54366;51.980;5.856;2022-12-05T06:43:43;5.40;86.60
67529;DHT22;54366;51.980;5.856;2022-12-05T06:46:11;5.40;86.50
67529;DHT22;54366;51.980;5.856;2022-12-05T06:48:38;5.40;86.60
67529;DHT22;54366;51.980;5.856;2022-12-05T06:51:08;5.40;86.70
67529;DHT22;54366;51.980;5.856;2022-12-05T06:53:35;5.40;86.70
67529;DHT22;54366;51.980;5.856;2022-12-05T06:56:03;5.40;86.60
67529;DHT22;54366;51.980;5.856;2022-12-05T06:58:30;5.40;86.70
67529;DHT22;54366;51.980;5.856;2022-12-05T07:00:56;5.40;86.60
67529;DHT22;54366;51.980;5.856;2022-12-05T07:03:41;5.50;86.50
67529;DHT22;54366;51.980;5.856;2022-12-05T07:06:09;5.50;86.60
67529;DHT22;54366;51.980;5.856;2022-12-05T07:08:35;5.50;86.50
67529;DHT22;54366;51.980;5.856;2022-12-05T07:11:02;5.50;86.50
67529;DHT22;54366;51.980;5.856;2022-12-05T07:13:29;5.50;86.50
67529;DHT22;54366;51.980;5.856;2022-12-05T07:15:55;5.50;86.40
67529;DHT22;54366;51.980;5.856;2022-12-05T07:18:23;5.50;86.40
67529;DHT22;54366;51.980;5.856;2022-12-05T07:21:02;5.50;86.40
67529;DHT22;54366;51.980;5.856;2022-12-05T07:23:28;5.60;86.40
67529;DHT22;54366;51.980;5.856;2022-12-05T07:25:54;5.60;86.30
67529;DHT22;54366;51.980;5.856;2022-12-05T07:28:22;5.60;86.30
67529;DHT22;54366;51.980;5.856;2022-12-05T07:31:01;5.60;86.30
67529;DHT22;54366;51.980;5.856;2022-12-05T07:33:28;5.60;86.30
67529;DHT22;54366;51.980;5.856;2022-12-05T07:36:20;5.60;86.30
67529;DHT22;54366;51.980;5.856;2022-12-05T07:38:48;5.60;86.30
67529;DHT22;54366;51.980;5.856;2022-12-05T07:41:20;5.60;86.30
67529;DHT22;54366;51.980;5.856;2022-12-05T07:43:47;5.60;86.20
67529;DHT22;54366;51.980;5.856;2022-12-05T07:46:13;5.60;86.40
67529;DHT22;54366;51.980;5.856;2022-12-05T07:48:39;5.60;86.30
67529;DHT22;54366;51.980;5.856;2022-12-05T07:51:07;5.70;86.30
67529;DHT22;54366;51.980;5.856;2022-12-05T07:53:33;5.70;86.30
67529;DHT22;54366;51.980;5.856;2022-12-05T07:56:01;5.60;86.10
67529;DHT22;54366;51.980;5.856;2022-12-05T07:58:28;5.70;86.40
67529;DHT22;54366;51.980;5.856;2022-12-05T08:00:56;5.70;86.20
67529;DHT22;54366;51.980;5.856;2022-12-05T08:03:23;5.60;86.10
67529;DHT22;54366;51.980;5.856;2022-12-05T08:05:50;5.60;86.10
67529;DHT22;54366;51.980;5.856;2022-12-05T08:08:16;5.70;86.20
67529;DHT22;54366;51.980;5.856;2022-12-05T08:10:42;5.70;86.20
67529;DHT22;54366;51.980;5.856;2022-12-05T08:13:09;5.70;86.30
67529;DHT22;54366;51.980;5.856;2022-12-05T08:15:35;5.70;86.40
67529;DHT22;54366;51.980;5.856;2022-12-05T08:18:02;5.70;86.30
67529;DHT22;54366;51.980;5.856;2022-12-05T08:20:28;5.80;86.30
67529;DHT22;54366;51.980;5.856;2022-12-05T08:22:55;5.70;86.40
67529;DHT22;54366;51.980;5.856;2022-12-05T08:25:21;5.70;86.30
67529;DHT22;54366;51.980;5.856;2022-12-05T08:27:48;5.70;86.30
67529;DHT22;54366;51.980;5.856;2022-12-05T08:30:14;5.80;86.30
67529;DHT22;54366;51.980;5.856;2022-12-05T08:32:40;5.80;86.50
67529;DHT22;54366;51.980;5.856;2022-12-05T08:35:07;5.70;86.40
67529;DHT22;54366;51.980;5.856;2022-12-05T08:37:34;5.80;86.40
67529;DHT22;54366;51.980;5.856;2022-12-05T08:40:00;5.80;86.50
67529;DHT22;54366;51.980;5.856;2022-12-05T08:42:27;5.80;86.60
67529;DHT22;54366;51.980;5.856;2022-12-05T08:44:53;5.80;86.50
67529;DHT22;54366;51.980;5.856;2022-12-05T08:47:19;5.70;86.40
67529;DHT22;54366;51.980;5.856;2022-12-05T08:49:46;5.80;86.50
67529;DHT22;54366;51.980;5.856;2022-12-05T08:52:12;5.80;86.30
67529;DHT22;54366;51.980;5.856;2022-12-05T08:54:39;5.80;86.40
67529;DHT22;54366;51.980;5.856;2022-12-05T08:57:05;5.80;86.50
67529;DHT22;54366;51.980;5.856;2022-12-05T08:59:31;5.80;86.40
67529;DHT22;54366;51.980;5.856;2022-12-05T09:01:57;5.80;86.40
67529;DHT22;54366;51.980;5.856;2022-12-05T09:04:24;5.90;86.40
67529;DHT22;54366;51.980;5.856;2022-12-05T09:06:50;5.90;86.30
67529;DHT22;54366;51.980;5.856;2022-12-05T09:09:16;5.90;86.20
67529;DHT22;54366;51.980;5.856;2022-12-05T09:11:43;5.90;86.30
67529;DHT22;54366;51.980;5.856;2022-12-05T09:14:16;5.90;86.20
67529;DHT22;54366;51.980;5.856;2022-12-05T09:16:44;5.90;86.60
67529;DHT22;54366;51.980;5.856;2022-12-05T09:19:14;5.90;86.40
67529;DHT22;54366;51.980;5.856;2022-12-05T09:21:41;5.90;86.90
67529;DHT22;54366;51.980;5.856;2022-12-05T09:24:11;5.90;86.40
67529;DHT22;54366;51.980;5.856;2022-12-05T09:26:39;5.90;86.30
67529;DHT22;54366;51.980;5.856;2022-12-05T09:29:05;5.90;86.40
67529;DHT22;54366;51.980;5.856;2022-12-05T09:31:32;5.90;86.40
67529;DHT22;54366;51.980;5.856;2022-12-05T09:33:59;5.90;86.40
67529;DHT22;54366;51.980;5.856;2022-12-05T09:36:28;5.90;86.40
67529;DHT22;54366;51.980;5.856;2022-12-05T09:38:58;6.00;86.40
67529;DHT22;54366;51.980;5.856;2022-12-05T09:42:08;5.90;86.30
67529;DHT22;54366;51.980;5.856;2022-12-05T09:48:00;5.90;86.30
67529;DHT22;54366;51.980;5.856;2022-12-05T09:50:44;6.10;86.60
67529;DHT22;54366;51.980;5.856;2022-12-05T09:53:41;5.90;86.50
67529;DHT22;54366;51.980;5.856;2022-12-05T09:56:24;6.00;86.60
67529;DHT22;54366;51.980;5.856;2022-12-05T09:58:57;5.90;86.50
67529;DHT22;54366;51.980;5.856;2022-12-05T10:01:56;6.00;86.50
67529;DHT22;54366;51.980;5.856;2022-12-05T10:05:01;6.00;86.60
67529;DHT22;54366;51.980;5.856;2022-12-05T10:11:01;6.00;86.40
67529;DHT22;54366;51.980;5.856;2022-12-05T10:13:52;6.10;86.50
67529;DHT22;54366;51.980;5.856;2022-12-05T10:16:56;6.10;86.50
67529;DHT22;54366;51.980;5.856;2022-12-05T10:19:34;6.10;86.40
67529;DHT22;54366;51.980;5.856;2022-12-05T10:22:18;6.10;86.50
67529;DHT22;54366;51.980;5.856;2022-12-05T10:24:51;6.10;86.60
67529;DHT22;54366;51.980;5.856;2022-12-05T10:27:31;6.20;86.80
67529;DHT22;54366;51.980;5.856;2022-12-05T10:30:03;6.10;86.70
67529;DHT22;54366;51.980;5.856;2022-12-05T10:32:39;6.20;86.80
67529;DHT22;54366;51.980;5.856;2022-12-05T10:35:39;6.10;86.70
67529;DHT22;54366;51.980;5.856;2022-12-05T10:41:09;6.20;86.60
67529;DHT22;54366;51.980;5.856;2022-12-05T10:43:37;6.20;86.60
67529;DHT22;54366;51.980;5.856;2022-12-05T10:46:05;6.20;86.70
67529;DHT22;54366;51.980;5.856;2022-12-05T10:48:35;6.20;86.70
67529;DHT22;54366;51.980;5.856;2022-12-05T10:51:02;6.20;86.70
67529;DHT22;54366;51.980;5.856;2022-12-05T10:53:48;6.30;86.80
67529;DHT22;54366;51.980;5.856;2022-12-05T10:56:38;6.20;86.70
67529;DHT22;54366;51.980;5.856;2022-12-05T10:59:06;6.30;86.80
67529;DHT22;54366;51.980;5.856;2022-12-05T11:01:34;6.30;86.80
67529;DHT22;54366;51.980;5.856;2022-12-05T11:04:17;6.30;86.80
67529;DHT22;54366;51.980;5.856;2022-12-05T11:06:53;6.30;86.80
67529;DHT22;54366;51.980;5.856;2022-12-05T11:09:23;6.30;86.90
67529;DHT22;54366;51.980;5.856;2022-12-05T11:12:22;6.30;86.80
67529;DHT22;54366;51.980;5.856;2022-12-05T11:15:20;6.30;86.90
67529;DHT22;54366;51.980;5.856;2022-12-05T11:17:55;6.30;86.80
67529;DHT22;54366;51.980;5.856;2022-12-05T11:20:41;6.40;86.90
67529;DHT22;54366;51.980;5.856;2022-12-05T11:23:29;6.40;87.00
67529;DHT22;54366;51.980;5.856;2022-12-05T11:25:57;6.50;87.00
67529;DHT22;54366;51.980;5.856;2022-12-05T11:28:32;6.40;86.90
67529;DHT22;54366;51.980;5.856;2022-12-05T11:31:20;6.40;86.90
67529;DHT22;54366;51.980;5.856;2022-12-05T11:34:15;6.40;87.00
67529;DHT22;54366;51.980;5.856;2022-12-05T11:36:47;6.40;86.90
67529;DHT22;54366;51.980;5.856;2022-12-05T11:39:14;6.40;87.50
67529;DHT22;54366;51.980;5.856;2022-12-05T11:41:57;6.40;86.90
67529;DHT22;54366;51.980;5.856;2022-12-05T11:44:31;6.40;87.00
67529;DHT22;54366;51.980;5.856;2022-12-05T11:47:45;6.40;86.90
67529;DHT22;54366;51.980;5.856;2022-12-05T11:50:32;6.40;86.90
67529;DHT22;54366;51.980;5.856;2022-12-05T11:56:34;6.40;87.00
67529;DHT22;54366;51.980;5.856;2022-12-05T12:06:18;6.50;87.00
67529;DHT22;54366;51.980;5.856;2022-12-05T12:12:39;6.50;87.00
67529;DHT22;54366;51.980;5.856;2022-12-05T12:15:41;6.50;87.00
67529;DHT22;54366;51.980;5.856;2022-12-05T12:21:59;6.40;86.60
67529;DHT22;54366;51.980;5.856;2022-12-05T12:27:24;6.40;86.70
67529;DHT22;54366;51.980;5.856;2022-12-05T12:30:20;6.40;86.60
67529;DHT22;54366;51.980;5.856;2022-12-05T12:33:10;6.40;86.70
67529;DHT22;54366;51.980;5.856;2022-12-05T12:35:50;6.30;86.70
67529;DHT22;54366;51.980;5.856;2022-12-05T12:38:58;6.30;86.80
67529;DHT22;54366;51.980;5.856;2022-12-05T12:45:29;6.30;86.80
67529;DHT22;54366;51.980;5.856;2022-12-05T12:48:03;6.30;86.70
67529;DHT22;54366;51.980;5.856;2022-12-05T12:50:36;6.30;86.90
67529;DHT22;54366;51.980;5.856;2022-12-05T12:55:23;6.30;86.60
67529;DHT22;54366;51.980;5.856;2022-12-05T12:57:01;6.40;86.60
67529;DHT22;54366;51.980;5.856;2022-12-05T12:59:44;6.30;86.70
67529;DHT22;54366;51.980;5.856;2022-12-05T13:02:30;6.30;86.70
67529;DHT22;54366;51.980;5.856;2022-12-05T13:05:40;6.40;86.80
67529;DHT22;54366;51.980;5.856;2022-12-05T13:08:15;6.50;86.70
67529;DHT22;54366;51.980;5.856;2022-12-05T13:10:45;6.40;86.80
67529;DHT22;54366;51.980;5.856;2022-12-05T13:13:18;6.30;86.70
67529;DHT22;54366;51.980;5.856;2022-12-05T13:16:00;6.40;86.80
67529;DHT22;54366;51.980;5.856;2022-12-05T13:18:27;6.40;86.70
67529;DHT22;54366;51.980;5.856;2022-12-05T13:20:58;6.40;86.70
67529;DHT22;54366;51.980;5.856;2022-12-05T13:23:28;6.40;86.70
67529;DHT22;54366;51.980;5.856;2022-12-05T13:25:57;6.40;86.70
67529;DHT22;54366;51.980;5.856;2022-12-05T13:28:36;6.40;86.80
67529;DHT22;54366;51.980;5.856;2022-12-05T13:31:10;6.40;86.70
67529;DHT22;54366;51.980;5.856;2022-12-05T13:33:47;6.40;86.70
67529;DHT22;54366;51.980;5.856;2022-12-05T13:36:21;6.40;86.60
67529;DHT22;54366;51.980;5.856;2022-12-05T13:39:19;6.40;86.80
67529;DHT22;54366;51.980;5.856;2022-12-05T13:42:05;6.40;86.70
67529;DHT22;54366;51.980;5.856;2022-12-05T13:44:56;6.40;86.80
67529;DHT22;54366;51.980;5.856;2022-12-05T13:47:48;6.40;86.90
67529;DHT22;54366;51.980;5.856;2022-12-05T13:50:18;6.40;86.90
67529;DHT22;54366;51.980;5.856;2022-12-05T13:52:51;6.50;86.80
67529;DHT22;54366;51.980;5.856;2022-12-05T13:55:28;6.50;86.90
67529;DHT22;54366;51.980;5.856;2022-12-05T13:57:56;6.50;86.80
67529;DHT22;54366;51.980;5.856;2022-12-05T14:00:28;6.50;86.80
67529;DHT22;54366;51.980;5.856;2022-12-05T14:03:16;6.60;86.70
67529;DHT22;54366;51.980;5.856;2022-12-05T14:05:46;6.60;86.60
67529;DHT22;54366;51.980;5.856;2022-12-05T14:08:50;6.60;86.50
67529;DHT22;54366;51.980;5.856;2022-12-05T14:11:17;6.70;86.60
67529;DHT22;54366;51.980;5.856;2022-12-05T14:13:44;6.70;86.40
67529;DHT22;54366;51.980;5.856;2022-12-05T14:16:37;6.70;86.50
67529;DHT22;54366;51.980;5.856;2022-12-05T14:19:47;6.70;86.50
67529;DHT22;54366;51.980;5.856;2022-12-05T14:25:41;6.70;86.50
67529;DHT22;54366;51.980;5.856;2022-12-05T14:28:33;6.70;86.50
67529;DHT22;54366;51.980;5.856;2022-12-05T14:31:26;6.70;86.50
67529;DHT22;54366;51.980;5.856;2022-12-05T14:37:34;6.70;86.50
67529;DHT22;54366;51.980;5.856;2022-12-05T14:40:20;6.70;86.50
67529;DHT22;54366;51.980;5.856;2022-12-05T14:43:30;6.70;86.50
67529;DHT22;54366;51.980;5.856;2022-12-05T14:46:07;6.70;86.50
67529;DHT22;54366;51.980;5.856;2022-12-05T14:48:41;6.70;86.50
67529;DHT22;54366;51.980;5.856;2022-12-05T14:51:55;6.70;86.50
67529;DHT22;54366;51.980;5.856;2022-12-05T14:54:22;6.70;86.50
67529;DHT22;54366;51.980;5.856;2022-12-05T14:56:52;6.70;86.70
67529;DHT22;54366;51.980;5.856;2022-12-05T14:59:53;6.80;86.90
67529;DHT22;54366;51.980;5.856;2022-12-05T15:02:30;6.60;86.70
67529;DHT22;54366;51.980;5.856;2022-12-05T15:05:06;6.60;86.70
67529;DHT22;54366;51.980;5.856;2022-12-05T15:07:42;6.60;86.90
67529;DHT22;54366;51.980;5.856;2022-12-05T15:10:13;6.60;86.90
67529;DHT22;54366;51.980;5.856;2022-12-05T15:12:50;6.60;86.80
67529;DHT22;54366;51.980;5.856;2022-12-05T15:15:40;6.60;86.80
67529;DHT22;54366;51.980;5.856;2022-12-05T15:18:11;6.70;86.80
67529;DHT22;54366;51.980;5.856;2022-12-05T15:21:00;6.60;86.70
67529;DHT22;54366;51.980;5.856;2022-12-05T15:23:42;6.70;86.80
67529;DHT22;54366;51.980;5.856;2022-12-05T15:26:22;6.60;86.60
67529;DHT22;54366;51.980;5.856;2022-12-05T15:29:23;6.70;86.70
67529;DHT22;54366;51.980;5.856;2022-12-05T15:32:15;6.70;86.70
67529;DHT22;54366;51.980;5.856;2022-12-05T15:35:00;6.70;86.70
67529;DHT22;54366;51.980;5.856;2022-12-05T15:37:54;6.70;86.70
67529;DHT22;54366;51.980;5.856;2022-12-05T15:40:22;6.70;86.80
67529;DHT22;54366;51.980;5.856;2022-12-05T15:42:55;6.60;86.70
67529;DHT22;54366;51.980;5.856;2022-12-05T15:45:27;6.60;86.60
67529;DHT22;54366;51.980;5.856;2022-12-05T15:47:56;6.60;86.70
67529;DHT22;54366;51.980;5.856;2022-12-05T15:50:43;6.60;86.80
67529;DHT22;54366;51.980;5.856;2022-12-05T15:53:19;6.60;86.90
67529;DHT22;54366;51.980;5.856;2022-12-05T15:55:51;6.60;86.90
67529;DHT22;54366;51.980;5.856;2022-12-05T15:58:42;6.60;87.10
67529;DHT22;54366;51.980;5.856;2022-12-05T16:01:19;6.50;87.00
67529;DHT22;54366;51.980;5.856;2022-12-05T16:09:25;6.50;87.10
67529;DHT22;54366;51.980;5.856;2022-12-05T16:12:04;6.60;87.00
67529;DHT22;54366;51.980;5.856;2022-12-05T16:14:37;6.60;87.00
67529;DHT22;54366;51.980;5.856;2022-12-05T16:17:06;6.60;87.00
67529;DHT22;54366;51.980;5.856;2022-12-05T16:19:34;6.60;87.00
67529;DHT22;54366;51.980;5.856;2022-12-05T16:22:22;6.60;87.00
67529;DHT22;54366;51.980;5.856;2022-12-05T16:25:00;6.50;86.90
67529;DHT22;54366;51.980;5.856;2022-12-05T16:27:35;6.60;86.90
67529;DHT22;54366;51.980;5.856;2022-12-05T16:30:21;6.60;86.90
67529;DHT22;54366;51.980;5.856;2022-12-05T16:32:56;6.50;86.80
67529;DHT22;54366;51.980;5.856;2022-12-05T16:38:12;6.60;86.80
67529;DHT22;54366;51.980;5.856;2022-12-05T16:41:00;6.60;86.90
67529;DHT22;54366;51.980;5.856;2022-12-05T16:43:41;6.60;86.80
67529;DHT22;54366;51.980;5.856;2022-12-05T16:46:40;6.60;86.80
67529;DHT22;54366;51.980;5.856;2022-12-05T16:49:33;6.60;86.80
67529;DHT22;54366;51.980;5.856;2022-12-05T16:52:11;6.60;86.80
67529;DHT22;54366;51.980;5.856;2022-12-05T16:54:40;6.60;86.90
67529;DHT22;54366;51.980;5.856;2022-12-05T16:57:12;6.60;86.90
67529;DHT22;54366;51.980;5.856;2022-12-05T16:59:40;6.60;86.90
67529;DHT22;54366;51.980;5.856;2022-12-05T17:02:13;6.60;86.80
67529;DHT22;54366;51.980;5.856;2022-12-05T17:04:40;6.60;86.80
67529;DHT22;54366;51.980;5.856;2022-12-05T17:07:06;6.60;86.80
67529;DHT22;54366;51.980;5.856;2022-12-05T17:09:33;6.60;86.90
67529;DHT22;54366;51.980;5.856;2022-12-05T17:12:03;6.60;86.90
67529;DHT22;54366;51.980;5.856;2022-12-05T17:14:32;6.60;86.90
67529;DHT22;54366;51.980;5.856;2022-12-05T17:16:58;6.60;86.80
67529;DHT22;54366;51.980;5.856;2022-12-05T17:19:25;6.60;86.80
67529;DHT22;54366;51.980;5.856;2022-12-05T17:21:54;6.60;86.80
67529;DHT22;54366;51.980;5.856;2022-12-05T17:24:20;6.60;86.90
67529;DHT22;54366;51.980;5.856;2022-12-05T17:26:47;6.60;86.90
67529;DHT22;54366;51.980;5.856;2022-12-05T17:29:13;6.60;86.80
67529;DHT22;54366;51.980;5.856;2022-12-05T17:31:39;6.60;86.90
67529;DHT22;54366;51.980;5.856;2022-12-05T17:34:13;6.60;87.00
67529;DHT22;54366;51.980;5.856;2022-12-05T17:36:43;6.60;87.50
67529;DHT22;54366;51.980;5.856;2022-12-05T17:39:10;6.60;86.90
67529;DHT22;54366;51.980;5.856;2022-12-05T17:41:36;6.50;86.90
67529;DHT22;54366;51.980;5.856;2022-12-05T17:44:04;6.60;86.90